createdAt,value
2023-03-18T00:00:19.403Z,95076.3
2023-03-18T00:01:21.910Z,95080.7
2023-03-18T00:02:24.793Z,95076.2
2023-03-18T00:03:27.886Z,95080.6
2023-03-18T00:04:30.441Z,95078.2
2023-03-18T00:05:32.997Z,95078.8
2023-03-18T00:06:35.529Z,95077.7
2023-03-18T00:07:38.111Z,95083
2023-03-18T00:08:40.045Z,95083.4
2023-03-18T00:09:42.020Z,95087.1
2023-03-18T00:10:44.602Z,95087
2023-03-18T00:11:47.158Z,95089.7
2023-03-18T00:12:49.680Z,95089.9
2023-03-18T00:13:52.161Z,95089.3
2023-03-18T00:14:54.662Z,95087.5
2023-03-18T00:15:57.060Z,95094.5
2023-03-18T00:16:59.776Z,95088.8
2023-03-18T00:18:02.054Z,95088.8
2023-03-18T00:19:04.607Z,95091.2
2023-03-18T00:20:06.937Z,95087.7
2023-03-18T00:21:09.603Z,95091.5
2023-03-18T00:22:12.121Z,95090.7
2023-03-18T00:23:14.069Z,95095
2023-03-18T00:24:16.320Z,95093.9
2023-03-18T00:25:18.869Z,95092
2023-03-18T00:26:21.170Z,95095.2
2023-03-18T00:27:23.806Z,95095.8
2023-03-18T00:28:26.322Z,95094.8
2023-03-18T00:29:28.861Z,95093.9
2023-03-18T00:30:32.772Z,95097.3
2023-03-18T00:31:36.159Z,95101.5
2023-03-18T00:32:39.051Z,95099.4
2023-03-18T00:33:41.811Z,95104.9
2023-03-18T00:34:44.042Z,95102.8
2023-03-18T00:35:46.803Z,95103.6
2023-03-18T00:36:49.340Z,95107.3
2023-03-18T00:37:51.306Z,95103.8
2023-03-18T00:38:53.840Z,95105.4
2023-03-18T00:39:56.050Z,95102.3
2023-03-18T00:40:58.268Z,95104.4
2023-03-18T00:42:00.607Z,95104.8
2023-03-18T00:43:03.169Z,95107.3
2023-03-18T00:44:05.766Z,95106.6
2023-03-18T00:45:08.274Z,95108.4
2023-03-18T00:46:10.547Z,95108.1
2023-03-18T00:47:13.052Z,95110.3
2023-03-18T00:48:15.325Z,95111.6
2023-03-18T00:49:17.545Z,95113.9
2023-03-18T00:50:19.789Z,95116.5
2023-03-18T00:51:22.287Z,95114.4
2023-03-18T00:52:24.862Z,95114.5
2023-03-18T00:53:27.408Z,95109.7
2023-03-18T00:54:29.649Z,95110.9
2023-03-18T00:55:32.211Z,95116.2
2023-03-18T00:56:34.749Z,95113.9
2023-03-18T00:57:37.390Z,95115.9
2023-03-18T00:58:39.927Z,95112.9
2023-03-18T00:59:42.136Z,95110.2
2023-03-18T01:00:44.567Z,95113.9
2023-03-18T01:01:47.100Z,95113.6
2023-03-18T01:02:49.399Z,95112.8
2023-03-18T01:03:51.938Z,95114.7
2023-03-18T01:04:54.476Z,95112
2023-03-18T01:05:56.985Z,95112.4
2023-03-18T01:06:59.250Z,95114.8
2023-03-18T01:08:01.757Z,95116.1
2023-03-18T01:09:04.379Z,95116.6
2023-03-18T01:10:06.953Z,95121
2023-03-18T01:11:09.476Z,95118
2023-03-18T01:12:11.731Z,95120.6
2023-03-18T01:13:14.003Z,95115.3
2023-03-18T01:14:16.284Z,95113.6
2023-03-18T01:15:18.776Z,95114.6
2023-03-18T01:16:21.168Z,95109.8
2023-03-18T01:17:23.839Z,95109.4
2023-03-18T01:18:26.078Z,95110.3
2023-03-18T01:19:28.608Z,95111.9
2023-03-18T01:20:32.411Z,95109.4
2023-03-18T01:21:35.536Z,95113
2023-03-18T01:22:38.068Z,95109.7
2023-03-18T01:23:40.606Z,95115
2023-03-18T01:24:43.193Z,95106.9
2023-03-18T01:25:45.144Z,95107.2
2023-03-18T01:26:47.404Z,95106.4
2023-03-18T01:27:49.662Z,95109.4
2023-03-18T01:28:52.302Z,95106
2023-03-18T01:29:54.839Z,95109.8
2023-03-18T01:30:57.340Z,95106.4
2023-03-18T01:31:59.779Z,95107.4
2023-03-18T01:33:02.459Z,95111.3
2023-03-18T01:34:04.736Z,95105.9
2023-03-18T01:35:06.957Z,95104.5
2023-03-18T01:36:09.755Z,95107.4
2023-03-18T01:37:12.375Z,95108.8
2023-03-18T01:38:14.342Z,95106.7
2023-03-18T01:39:16.861Z,95110.6
2023-03-18T01:40:19.397Z,95115
2023-03-18T01:41:21.907Z,95111.6
2023-03-18T01:42:24.172Z,95108.5
2023-03-18T01:43:26.128Z,95108.8
2023-03-18T01:44:28.470Z,95107.5
2023-03-18T01:45:31.193Z,95110.5
2023-03-18T01:46:33.235Z,95113.5
2023-03-18T01:47:36.783Z,95112.1
2023-03-18T01:48:39.257Z,95112.4
2023-03-18T01:49:41.512Z,95117.2
2023-03-18T01:50:43.738Z,95112.2
2023-03-18T01:51:46.234Z,95115.3
2023-03-18T01:52:48.444Z,95113.3
2023-03-18T01:53:50.946Z,95114.3
2023-03-18T01:54:53.167Z,95116
2023-03-18T01:55:55.713Z,95115.7
2023-03-18T01:56:57.701Z,95120.3
2023-03-18T01:58:00.202Z,95118.2
2023-03-18T01:59:02.451Z,95116.9
2023-03-18T02:00:04.893Z,95119.8
2023-03-18T02:01:07.710Z,95121.1
2023-03-18T02:02:10.024Z,95123.7
2023-03-18T02:03:12.523Z,95121.1
2023-03-18T02:04:15.853Z,95123.9
2023-03-18T02:05:18.096Z,95119
2023-03-18T02:06:20.326Z,95119.4
2023-03-18T02:07:22.852Z,95121.6
2023-03-18T02:08:24.792Z,95120.8
2023-03-18T02:09:26.702Z,95121.2
2023-03-18T02:10:28.988Z,95122.5
2023-03-18T02:11:31.503Z,95123.7
2023-03-18T02:12:33.759Z,95125.5
2023-03-18T02:13:35.974Z,95127.6
2023-03-18T02:14:38.473Z,95126.9
2023-03-18T02:15:40.740Z,95124.6
2023-03-18T02:16:43.586Z,95125.9
2023-03-18T02:17:46.191Z,95127
2023-03-18T02:18:48.681Z,95125.7
2023-03-18T02:19:51.079Z,95126.1
2023-03-18T02:20:53.572Z,95135.4
2023-03-18T02:21:56.079Z,95129.2
2023-03-18T02:22:58.592Z,95128.1
2023-03-18T02:24:00.837Z,95134.8
2023-03-18T02:25:03.056Z,95127.6
2023-03-18T02:26:05.380Z,95129.8
2023-03-18T02:27:07.890Z,95136
2023-03-18T02:28:10.100Z,95131.7
2023-03-18T02:29:12.631Z,95129.8
2023-03-18T02:30:15.209Z,95132.7
2023-03-18T02:31:17.750Z,95129.6
2023-03-18T02:32:20.449Z,95130.3
2023-03-18T02:33:22.990Z,95130.3
2023-03-18T02:34:25.210Z,95137
2023-03-18T02:35:27.911Z,95134.2
2023-03-18T02:36:30.449Z,95137.4
2023-03-18T02:37:32.937Z,95137.7
2023-03-18T02:38:35.465Z,95137.9
2023-03-18T02:39:38.019Z,95142.5
2023-03-18T02:40:40.577Z,95134.5
2023-03-18T02:41:42.522Z,95136.7
2023-03-18T02:42:44.503Z,95138.5
2023-03-18T02:43:47.006Z,95136.4
2023-03-18T02:44:49.508Z,95135
2023-03-18T02:45:51.986Z,95139.8
2023-03-18T02:46:54.410Z,95144.4
2023-03-18T02:47:56.940Z,95138.8
2023-03-18T02:48:59.153Z,95143.5
2023-03-18T02:50:01.418Z,95140.9
2023-03-18T02:51:03.905Z,95142.1
2023-03-18T02:52:06.417Z,95145.4
2023-03-18T02:53:08.909Z,95144.5
2023-03-18T02:54:11.173Z,95147
2023-03-18T02:55:14.049Z,95149.3
2023-03-18T02:56:16.071Z,95149.1
2023-03-18T02:57:18.033Z,95152.4
2023-03-18T02:58:20.570Z,95153.3
2023-03-18T02:59:22.805Z,95152
2023-03-18T03:00:25.341Z,95154.3
2023-03-18T03:01:27.817Z,95158.2
2023-03-18T03:02:31.045Z,95153.1
2023-03-18T03:03:33.771Z,95150
2023-03-18T03:04:36.028Z,95157.5
2023-03-18T03:05:37.969Z,95155.8
2023-03-18T03:06:40.177Z,95158.7
2023-03-18T03:07:42.778Z,95158
2023-03-18T03:08:45.325Z,95155.1
2023-03-18T03:09:47.533Z,95158
2023-03-18T03:10:50.021Z,95162.5
2023-03-18T03:11:51.697Z,95162.9
2023-03-18T03:12:53.672Z,95159.8
2023-03-18T03:13:56.234Z,95163.3
2023-03-18T03:14:58.500Z,95164.5
2023-03-18T03:16:01.292Z,95166.3
2023-03-18T03:17:03.652Z,95166.9
2023-03-18T03:18:05.959Z,95171.8
2023-03-18T03:19:08.545Z,95176.3
2023-03-18T03:20:10.780Z,95171.2
2023-03-18T03:21:13.020Z,95173.6
2023-03-18T03:22:15.241Z,95175.6
2023-03-18T03:23:17.469Z,95174.9
2023-03-18T03:24:19.687Z,95183.7
2023-03-18T03:25:22.256Z,95180.4
2023-03-18T03:26:24.551Z,95183.8
2023-03-18T03:27:26.811Z,95185.5
2023-03-18T03:28:29.106Z,95180.2
2023-03-18T03:29:31.148Z,95185.1
2023-03-18T03:30:34.480Z,95182
2023-03-18T03:31:37.161Z,95178.6
2023-03-18T03:32:39.931Z,95182.2
2023-03-18T03:33:42.621Z,95183.8
2023-03-18T03:34:45.144Z,95183.4
2023-03-18T03:35:47.624Z,95183
2023-03-18T03:36:50.273Z,95179.9
2023-03-18T03:37:52.774Z,95184.5
2023-03-18T03:38:55.297Z,95182.4
2023-03-18T03:39:57.573Z,95185
2023-03-18T03:40:59.834Z,95184.2
2023-03-18T03:42:01.791Z,95184
2023-03-18T03:43:04.015Z,95184.2
2023-03-18T03:44:06.270Z,95184.5
2023-03-18T03:45:08.496Z,95183.3
2023-03-18T03:46:11.237Z,95183
2023-03-18T03:47:13.527Z,95187.1
2023-03-18T03:48:16.024Z,95190.3
2023-03-18T03:49:18.292Z,95189
2023-03-18T03:50:20.805Z,95189.8
2023-03-18T03:51:23.022Z,95187.6
2023-03-18T03:52:25.246Z,95193.5
2023-03-18T03:53:27.800Z,95193.3
2023-03-18T03:54:29.729Z,95192.4
2023-03-18T03:55:31.687Z,95192.3
2023-03-18T03:56:33.925Z,95190.6
2023-03-18T03:57:36.415Z,95188.8
2023-03-18T03:58:38.926Z,95190.4
2023-03-18T03:59:41.164Z,95193
2023-03-18T04:00:43.395Z,95194
2023-03-18T04:01:46.047Z,95194.3
2023-03-18T04:02:48.702Z,95198.6
2023-03-18T04:03:51.531Z,95192.8
2023-03-18T04:04:53.864Z,95199
2023-03-18T04:05:56.413Z,95198.2
2023-03-18T04:06:58.623Z,95200
2023-03-18T04:08:01.156Z,95206.8
2023-03-18T04:09:03.665Z,95206.6
2023-03-18T04:10:05.895Z,95204.5
2023-03-18T04:11:08.453Z,95212.7
2023-03-18T04:12:10.651Z,95199.8
2023-03-18T04:13:13.129Z,95210
2023-03-18T04:14:15.332Z,95206.6
2023-03-18T04:15:17.559Z,95207.5
2023-03-18T04:16:19.861Z,95201.4
2023-03-18T04:17:22.468Z,95204.2
2023-03-18T04:18:24.982Z,95208.1
2023-03-18T04:19:27.178Z,95200.5
2023-03-18T04:20:30.106Z,95204.2
2023-03-18T04:21:33.164Z,95201.9
2023-03-18T04:22:35.397Z,95205.3
2023-03-18T04:23:37.262Z,95201.1
2023-03-18T04:24:39.456Z,95205.2
2023-03-18T04:25:41.673Z,95207
2023-03-18T04:26:44.192Z,95205
2023-03-18T04:27:46.681Z,95203.8
2023-03-18T04:28:49.185Z,95204.3
2023-03-18T04:29:51.405Z,95201.8
2023-03-18T04:30:53.951Z,95208
2023-03-18T04:31:56.566Z,95209.8
2023-03-18T04:32:58.954Z,95209.5
2023-03-18T04:34:01.666Z,95205.8
2023-03-18T04:35:03.921Z,95211.1
2023-03-18T04:36:06.188Z,95213.9
2023-03-18T04:37:08.542Z,95211
2023-03-18T04:38:11.036Z,95213.1
2023-03-18T04:39:13.230Z,95213.8
2023-03-18T04:40:15.767Z,95214.3
2023-03-18T04:41:18.275Z,95211.5
2023-03-18T04:42:20.533Z,95215.1
2023-03-18T04:43:23.034Z,95213.4
2023-03-18T04:44:25.540Z,95212.9
2023-03-18T04:45:27.720Z,95216.9
2023-03-18T04:46:30.149Z,95209.3
2023-03-18T04:47:32.696Z,95211.1
2023-03-18T04:48:35.196Z,95212.6
2023-03-18T04:49:37.697Z,95213.1
2023-03-18T04:50:40.009Z,95212.4
2023-03-18T04:51:42.632Z,95213.4
2023-03-18T04:52:44.603Z,95212.7
2023-03-18T04:53:47.106Z,95209.2
2023-03-18T04:54:49.891Z,95209.4
2023-03-18T04:55:52.134Z,95211.4
2023-03-18T04:56:54.654Z,95210.5
2023-03-18T04:57:57.457Z,95209.2
2023-03-18T04:58:59.671Z,95203.3
2023-03-18T05:00:01.602Z,95207
2023-03-18T05:01:04.360Z,95206.1
2023-03-18T05:02:07.090Z,95206.5
2023-03-18T05:03:09.607Z,95201.5
2023-03-18T05:04:12.087Z,95199.1
2023-03-18T05:05:14.348Z,95200.9
2023-03-18T05:06:16.998Z,95207.4
2023-03-18T05:07:19.266Z,95208.6
2023-03-18T05:08:21.507Z,95202
2023-03-18T05:09:23.992Z,95210.9
2023-03-18T05:10:26.221Z,95209.1
2023-03-18T05:11:28.529Z,95205.1
2023-03-18T05:12:31.030Z,95206.1
2023-03-18T05:13:33.280Z,95207.4
2023-03-18T05:14:35.580Z,95209.6
2023-03-18T05:15:38.118Z,95208.7
2023-03-18T05:16:40.885Z,95212.3
2023-03-18T05:17:43.189Z,95208.6
2023-03-18T05:18:45.726Z,95210.3
2023-03-18T05:19:48.468Z,95209.3
2023-03-18T05:20:51.077Z,95213
2023-03-18T05:21:53.601Z,95211.2
2023-03-18T05:22:55.640Z,95218.8
2023-03-18T05:23:58.197Z,95220
2023-03-18T05:25:00.422Z,95216.4
2023-03-18T05:26:02.372Z,95216.4
2023-03-18T05:27:04.823Z,95223.9
2023-03-18T05:28:08.507Z,95219.6
2023-03-18T05:29:13.398Z,95223.5
2023-03-18T05:30:15.615Z,95222.9
2023-03-18T05:31:18.275Z,95220.7
2023-03-18T05:32:20.601Z,95223.4
2023-03-18T05:33:24.292Z,95219.8
2023-03-18T05:34:26.564Z,95224.3
2023-03-18T05:35:28.869Z,95221.7
2023-03-18T05:36:31.392Z,95224.6
2023-03-18T05:37:33.895Z,95223.2
2023-03-18T05:38:36.181Z,95218.6
2023-03-18T05:39:38.693Z,95222.4
2023-03-18T05:40:40.916Z,95222.4
2023-03-18T05:41:43.121Z,95221.2
2023-03-18T05:43:50.318Z,95222.5
2023-03-18T05:44:52.526Z,95227.2
2023-03-18T05:45:54.965Z,95226.3
2023-03-18T05:46:57.553Z,95220.9
2023-03-18T05:48:00.043Z,95224.6
2023-03-18T05:49:02.263Z,95229.7
2023-03-18T05:50:04.524Z,95234
2023-03-18T05:51:07.082Z,95233.7
2023-03-18T05:52:09.294Z,95235.4
2023-03-18T05:53:11.498Z,95233.2
2023-03-18T05:54:13.263Z,95234
2023-03-18T05:55:15.851Z,95236.3
2023-03-18T05:56:18.350Z,95231.6
2023-03-18T05:57:20.580Z,95233.1
2023-03-18T05:58:22.836Z,95230.3
2023-03-18T05:59:25.358Z,95236.2
2023-03-18T06:00:27.560Z,95235.5
2023-03-18T06:01:29.797Z,95231.1
2023-03-18T06:02:32.585Z,95230.3
2023-03-18T06:03:35.152Z,95238.8
2023-03-18T06:04:37.462Z,95236.8
2023-03-18T06:05:39.826Z,95232.4
2023-03-18T06:06:42.316Z,95231.3
2023-03-18T06:07:44.252Z,95232.8
2023-03-18T06:08:46.492Z,95236.2
2023-03-18T06:09:48.562Z,95233.2
2023-03-18T06:10:51.078Z,95235
2023-03-18T06:11:53.347Z,95235.7
2023-03-18T06:12:55.963Z,95230
2023-03-18T06:13:58.944Z,95228.3
2023-03-18T06:15:01.423Z,95230.3
2023-03-18T06:16:03.708Z,95231.6
2023-03-18T06:17:05.969Z,95234.2
2023-03-18T06:18:08.181Z,95230.1
2023-03-18T06:19:10.100Z,95227.6
2023-03-18T06:20:12.376Z,95230.7
2023-03-18T06:21:14.877Z,95230.9
2023-03-18T06:22:17.088Z,95229.7
2023-03-18T06:23:19.324Z,95233.2
2023-03-18T06:24:21.824Z,95233.2
2023-03-18T06:25:24.560Z,95234.3
2023-03-18T06:26:27.379Z,95235.4
2023-03-18T06:27:29.898Z,95230.4
2023-03-18T06:28:31.829Z,95238.5
2023-03-18T06:29:34.348Z,95233.4
2023-03-18T06:30:36.564Z,95235.6
2023-03-18T06:31:39.065Z,95236.4
2023-03-18T06:32:41.670Z,95235.6
2023-03-18T06:33:43.381Z,95236.5
2023-03-18T06:34:45.308Z,95236.7
2023-03-18T06:35:47.919Z,95236.1
2023-03-18T06:36:50.178Z,95243
2023-03-18T06:37:52.135Z,95239.3
2023-03-18T06:38:54.734Z,95239.1
2023-03-18T06:39:57.288Z,95241
2023-03-18T06:40:59.567Z,95240.3
2023-03-18T06:42:02.101Z,95234.1
2023-03-18T06:43:04.609Z,95236.4
2023-03-18T06:44:06.282Z,95235.3
2023-03-18T06:45:08.294Z,95237.5
2023-03-18T06:46:11.059Z,95237.9
2023-03-18T06:47:13.669Z,95235.8
2023-03-18T06:48:16.168Z,95235
2023-03-18T06:49:18.675Z,95231.7
2023-03-18T06:50:20.628Z,95239.3
2023-03-18T06:51:23.153Z,95237.9
2023-03-18T06:52:25.451Z,95237.1
2023-03-18T06:53:27.937Z,95239.9
2023-03-18T06:54:30.432Z,95238.9
2023-03-18T06:55:34.379Z,95242.4
2023-03-18T06:56:36.882Z,95237.4
2023-03-18T06:57:39.444Z,95238.7
2023-03-18T06:58:41.960Z,95244
2023-03-18T06:59:44.482Z,95246.6
2023-03-18T07:00:47.115Z,95246.7
2023-03-18T07:01:49.726Z,95244.7
2023-03-18T07:02:51.828Z,95244.8
2023-03-18T07:03:54.312Z,95247.2
2023-03-18T07:04:56.568Z,95249
2023-03-18T07:05:58.789Z,95243.4
2023-03-18T07:07:00.994Z,95245.7
2023-03-18T07:08:02.954Z,95243.3
2023-03-18T07:09:05.180Z,95243.3
2023-03-18T07:10:07.690Z,95240.4
2023-03-18T07:11:09.937Z,95243.3
2023-03-18T07:12:12.589Z,95242.2
2023-03-18T07:13:15.126Z,95241.6
2023-03-18T07:14:17.701Z,95239.8
2023-03-18T07:15:20.202Z,95236.7
2023-03-18T07:16:22.690Z,95238.1
2023-03-18T07:17:25.058Z,95242.1
2023-03-18T07:18:27.607Z,95246.7
2023-03-18T07:19:30.112Z,95243.9
2023-03-18T07:20:32.040Z,95245.9
2023-03-18T07:21:34.263Z,95247.1
2023-03-18T07:22:36.489Z,95252.8
2023-03-18T07:23:39.014Z,95246.9
2023-03-18T07:24:41.234Z,95244.4
2023-03-18T07:25:43.734Z,95244.7
2023-03-18T07:26:46.266Z,95248
2023-03-18T07:27:48.543Z,95245
2023-03-18T07:28:50.782Z,95247.7
2023-03-18T07:29:53.301Z,95250.2
2023-03-18T07:30:56.069Z,95250.3
2023-03-18T07:31:58.606Z,95249.2
2023-03-18T07:33:01.118Z,95250.7
2023-03-18T07:34:03.691Z,95248.9
2023-03-18T07:35:06.278Z,95258.6
2023-03-18T07:36:08.897Z,95255.7
2023-03-18T07:37:11.195Z,95255.8
2023-03-18T07:38:13.695Z,95256.8
2023-03-18T07:39:16.197Z,95252.9
2023-03-18T07:40:18.726Z,95253.1
2023-03-18T07:41:21.258Z,95255.8
2023-03-18T07:42:23.251Z,95258.1
2023-03-18T07:43:25.819Z,95261
2023-03-18T07:44:28.353Z,95259
2023-03-18T07:45:30.769Z,95256.3
2023-03-18T07:46:33.872Z,95260
2023-03-18T07:47:36.347Z,95258.1
2023-03-18T07:48:38.846Z,95258.7
2023-03-18T07:49:41.147Z,95256.1
2023-03-18T07:50:43.672Z,95254.5
2023-03-18T07:51:45.598Z,95258.3
2023-03-18T07:52:48.104Z,95257
2023-03-18T07:53:50.354Z,95256
2023-03-18T07:54:52.596Z,95258.3
2023-03-18T07:55:54.917Z,95257.9
2023-03-18T07:56:57.201Z,95259.4
2023-03-18T07:57:59.526Z,95257.9
2023-03-18T07:59:02.155Z,95258.1
2023-03-18T08:00:04.675Z,95260.9
2023-03-18T08:01:06.700Z,95254.7
2023-03-18T08:02:09.333Z,95260.3
2023-03-18T08:03:11.548Z,95260.2
2023-03-18T08:04:14.230Z,95259.6
2023-03-18T08:05:17.047Z,95257.6
2023-03-18T08:07:24.274Z,95259.7
2023-03-18T08:08:26.506Z,95261.5
2023-03-18T08:09:29.049Z,95258.9
2023-03-18T08:10:31.591Z,95263.6
2023-03-18T08:11:33.567Z,95258.6
2023-03-18T08:13:41.470Z,95260.5
2023-03-18T08:14:43.767Z,95263.3
2023-03-18T08:15:46.309Z,95259.1
2023-03-18T08:16:48.567Z,95262
2023-03-18T08:17:51.248Z,95262
2023-03-18T08:18:53.565Z,95260.5
2023-03-18T08:19:56.069Z,95259.1
2023-03-18T08:20:58.600Z,95260.3
2023-03-18T08:22:01.136Z,95265.5
2023-03-18T08:23:03.397Z,95266.1
2023-03-18T08:24:05.928Z,95264
2023-03-18T08:25:08.448Z,95262.6
2023-03-18T08:26:11.097Z,95265.3
2023-03-18T08:27:13.664Z,95263.8
2023-03-18T08:28:15.954Z,95269
2023-03-18T08:29:18.235Z,95264
2023-03-18T08:30:20.672Z,95266.2
2023-03-18T08:31:23.398Z,95264.5
2023-03-18T08:32:25.953Z,95261
2023-03-18T08:33:28.211Z,95260.7
2023-03-18T08:34:30.200Z,95264.2
2023-03-18T08:35:33.834Z,95261.1
2023-03-18T08:36:36.394Z,95259
2023-03-18T08:37:38.969Z,95262.1
2023-03-18T08:38:41.325Z,95261.5
2023-03-18T08:39:43.817Z,95261.7
2023-03-18T08:40:46.036Z,95263.4
2023-03-18T08:41:48.581Z,95263.7
2023-03-18T08:42:50.879Z,95260.8
2023-03-18T08:43:53.464Z,95262.4
2023-03-18T08:44:56.036Z,95264.3
2023-03-18T08:45:58.815Z,95263.8
2023-03-18T08:47:01.404Z,95263.8
2023-03-18T08:48:03.912Z,95264.5
2023-03-18T08:49:06.155Z,95265.4
2023-03-18T08:50:08.135Z,95264.6
2023-03-18T08:51:10.409Z,95265.8
2023-03-18T08:52:12.923Z,95266.8
2023-03-18T08:53:15.440Z,95263.3
2023-03-18T08:54:17.681Z,95268.5
2023-03-18T08:55:20.188Z,95264.9
2023-03-18T08:56:22.403Z,95263.2
2023-03-18T08:57:24.644Z,95263.3
2023-03-18T08:58:27.152Z,95267.8
2023-03-18T08:59:29.677Z,95265.1
2023-03-18T09:00:31.909Z,95264.1
2023-03-18T09:01:34.899Z,95261.5
2023-03-18T09:02:37.286Z,95264.3
2023-03-18T09:03:40.213Z,95262.1
2023-03-18T09:04:42.482Z,95263.8
2023-03-18T09:05:44.733Z,95261.3
2023-03-18T09:06:47.090Z,95263.1
2023-03-18T09:07:49.581Z,95260.3
2023-03-18T09:08:52.111Z,95261.7
2023-03-18T09:09:54.684Z,95258.5
2023-03-18T09:10:56.917Z,95255.3
2023-03-18T09:11:59.145Z,95252.4
2023-03-18T09:13:01.724Z,95250.2
2023-03-18T09:14:03.970Z,95255.9
2023-03-18T09:15:06.192Z,95254
2023-03-18T09:16:08.175Z,95251.7
2023-03-18T09:17:10.751Z,95252.1
2023-03-18T09:18:14.212Z,95249.5
2023-03-18T09:19:16.741Z,95250.3
2023-03-18T09:20:19.400Z,95254.4
2023-03-18T09:21:21.610Z,95256.8
2023-03-18T09:22:23.819Z,95253.1
2023-03-18T09:23:26.024Z,95253.6
2023-03-18T09:24:28.507Z,95251.9
2023-03-18T09:25:32.545Z,95254
2023-03-18T09:26:35.343Z,95253
2023-03-18T09:27:37.574Z,95254.6
2023-03-18T09:28:39.865Z,95255.9
2023-03-18T09:29:42.383Z,95259.6
2023-03-18T09:30:45.024Z,95258.6
2023-03-18T09:31:47.078Z,95259.7
2023-03-18T09:32:49.898Z,95258.9
2023-03-18T09:33:52.458Z,95257.5
2023-03-18T09:34:54.960Z,95257.5
2023-03-18T09:35:57.258Z,95259.5
2023-03-18T09:36:59.935Z,95257.8
2023-03-18T09:38:02.522Z,95261
2023-03-18T09:39:04.472Z,95257.8
2023-03-18T09:40:06.705Z,95261
2023-03-18T09:41:08.938Z,95258
2023-03-18T09:42:11.470Z,95253.1
2023-03-18T09:43:13.966Z,95255.5
2023-03-18T09:44:16.232Z,95251.3
2023-03-18T09:45:18.236Z,95254.2
2023-03-18T09:46:21.215Z,95257.3
2023-03-18T09:47:23.888Z,95256.9
2023-03-18T09:48:26.668Z,95254
2023-03-18T09:49:28.648Z,95253
2023-03-18T09:50:30.881Z,95252.5
2023-03-18T09:51:33.424Z,95254.6
2023-03-18T09:52:35.933Z,95257
2023-03-18T09:53:37.881Z,95251.6
2023-03-18T09:54:40.139Z,95251.4
2023-03-18T09:55:42.639Z,95250.8
2023-03-18T09:56:45.153Z,95256
2023-03-18T09:57:47.691Z,95252.8
2023-03-18T09:58:49.919Z,95256.4
2023-03-18T09:59:52.477Z,95256.4
2023-03-18T10:00:55.014Z,95256.8
2023-03-18T10:01:57.282Z,95259.8
2023-03-18T10:02:59.258Z,95259
2023-03-18T10:04:02.252Z,95259.5
2023-03-18T10:05:04.903Z,95259.7
2023-03-18T10:06:07.237Z,95259.3
2023-03-18T10:07:09.774Z,95263.5
2023-03-18T10:08:12.266Z,95263.6
2023-03-18T10:09:14.755Z,95266.3
2023-03-18T10:10:17.277Z,95265.1
2023-03-18T10:11:19.488Z,95264.1
2023-03-18T10:12:21.996Z,95262.8
2023-03-18T10:13:24.233Z,95264.3
2023-03-18T10:14:26.173Z,95263.5
2023-03-18T10:15:28.434Z,95258.5
2023-03-18T10:16:30.958Z,95264
2023-03-18T10:17:33.185Z,95257.8
2023-03-18T10:18:35.700Z,95255
2023-03-18T10:19:38.014Z,95251
2023-03-18T10:20:40.534Z,95256
2023-03-18T10:21:42.493Z,95252.8
2023-03-18T10:22:44.440Z,95253.2
2023-03-18T10:23:46.692Z,95254.2
2023-03-18T10:24:49.212Z,95255.6
2023-03-18T10:25:51.131Z,95258
2023-03-18T10:26:53.578Z,95250.8
2023-03-18T10:27:55.225Z,95255.4
2023-03-18T10:28:57.621Z,95255.3
2023-03-18T10:29:59.837Z,95250.8
2023-03-18T10:31:02.541Z,95253.4
2023-03-18T10:32:05.074Z,95253.4
2023-03-18T10:33:07.844Z,95254
2023-03-18T10:34:10.359Z,95252.6
2023-03-18T10:35:12.665Z,95249.6
2023-03-18T10:36:15.336Z,95254.8
2023-03-18T10:37:17.949Z,95246.2
2023-03-18T10:38:20.446Z,95250
2023-03-18T10:39:22.964Z,95245.8
2023-03-18T10:40:25.483Z,95246
2023-03-18T10:42:32.691Z,95244.6
2023-03-18T10:43:34.897Z,95243.5
2023-03-18T10:44:36.851Z,95249.6
2023-03-18T10:45:39.089Z,95245.4
2023-03-18T10:46:42.285Z,95245.8
2023-03-18T10:47:44.994Z,95240.5
2023-03-18T10:48:47.185Z,95237.5
2023-03-18T10:49:49.678Z,95236.2
2023-03-18T10:50:52.265Z,95233.1
2023-03-18T10:51:54.771Z,95230.8
2023-03-18T10:52:57.264Z,95231.5
2023-03-18T10:53:59.747Z,95227.2
2023-03-18T10:55:02.326Z,95226.6
2023-03-18T10:56:04.544Z,95227.4
2023-03-18T10:57:07.078Z,95225.6
2023-03-18T10:58:09.314Z,95221.6
2023-03-18T10:59:11.810Z,95226.8
2023-03-18T11:00:14.302Z,95224.3
2023-03-18T11:02:24.512Z,95217.7
2023-03-18T11:03:27.099Z,95223.2
2023-03-18T11:04:29.599Z,95218.7
2023-03-18T11:05:33.549Z,95215
2023-03-18T11:06:36.819Z,95219
2023-03-18T11:07:39.418Z,95217.7
2023-03-18T11:08:41.947Z,95212.5
2023-03-18T11:09:44.181Z,95218.4
2023-03-18T11:10:46.503Z,95213
2023-03-18T11:11:49.018Z,95213.1
2023-03-18T11:12:51.532Z,95203.9
2023-03-18T11:13:54.151Z,95205.2
2023-03-18T11:14:56.458Z,95201.2
2023-03-18T11:15:59.219Z,95205.3
2023-03-18T11:17:01.800Z,95204.8
2023-03-18T11:18:04.445Z,95201.8
2023-03-18T11:19:06.404Z,95197.1
2023-03-18T11:20:08.973Z,95195.9
2023-03-18T11:21:11.173Z,95194.2
2023-03-18T11:22:13.793Z,95189.3
2023-03-18T11:23:16.074Z,95190.8
2023-03-18T11:24:18.593Z,95189.4
2023-03-18T11:25:21.102Z,95189.9
2023-03-18T11:26:23.644Z,95192.6
2023-03-18T11:27:26.147Z,95192.2
2023-03-18T11:28:28.417Z,95186.2
2023-03-18T11:29:30.968Z,95190.4
2023-03-18T11:31:38.716Z,95185.5
2023-03-18T11:32:41.612Z,95184.3
2023-03-18T11:33:44.251Z,95183.4
2023-03-18T11:34:46.744Z,95186.6
2023-03-18T11:35:49.227Z,95180.9
2023-03-18T11:36:51.554Z,95181.9
2023-03-18T11:37:54.152Z,95185.5
2023-03-18T11:38:56.393Z,95180.6
2023-03-18T11:40:00.718Z,95178.9
2023-03-18T11:41:02.928Z,95180.7
2023-03-18T11:42:05.415Z,95177.3
2023-03-18T11:43:07.969Z,95174.3
2023-03-18T11:44:10.488Z,95170
2023-03-18T11:45:12.690Z,95171.1
2023-03-18T11:46:14.926Z,95162.9
2023-03-18T11:47:17.554Z,95161.6
2023-03-18T11:48:19.851Z,95159.8
2023-03-18T11:49:22.388Z,95156.6
2023-03-18T11:50:24.938Z,95155.8
2023-03-18T11:51:28.790Z,95155.3
2023-03-18T11:52:30.753Z,95154.1
2023-03-18T11:53:34.484Z,95158.9
2023-03-18T11:54:36.722Z,95156.3
2023-03-18T11:55:39.248Z,95153.3
2023-03-18T11:56:41.783Z,95154.4
2023-03-18T11:57:44.018Z,95145.9
2023-03-18T11:58:46.519Z,95142.9
2023-03-18T11:59:49.019Z,95142.8
2023-03-18T12:00:51.554Z,95143.8
2023-03-18T12:01:54.289Z,95147.7
2023-03-18T12:02:56.889Z,95142.7
2023-03-18T12:03:58.823Z,95139.7
2023-03-18T12:05:01.533Z,95136.3
2023-03-18T12:06:03.874Z,95135.7
2023-03-18T12:07:06.078Z,95136.3
2023-03-18T12:08:08.577Z,95130.2
2023-03-18T12:09:11.211Z,95132.3
2023-03-18T12:10:13.780Z,95133.6
2023-03-18T12:11:15.754Z,95133
2023-03-18T12:12:17.711Z,95129.7
2023-03-18T12:13:20.227Z,95131.5
2023-03-18T12:14:22.769Z,95129.1
2023-03-18T12:15:25.268Z,95132.7
2023-03-18T12:16:28.141Z,95133.5
2023-03-18T12:17:30.490Z,95138.1
2023-03-18T12:18:32.715Z,95143.8
2023-03-18T12:19:34.946Z,95140.1
2023-03-18T12:20:37.433Z,95141.7
2023-03-18T12:21:39.927Z,95140.6
2023-03-18T12:22:42.464Z,95137
2023-03-18T12:23:45.006Z,95136.8
2023-03-18T12:24:47.585Z,95136.2
2023-03-18T12:25:49.842Z,95135.7
2023-03-18T12:26:52.354Z,95138.9
2023-03-18T12:27:54.852Z,95134.1
2023-03-18T12:28:57.356Z,95134.5
2023-03-18T12:29:59.859Z,95135.1
2023-03-18T12:31:02.122Z,95136.2
2023-03-18T12:32:04.609Z,95135.4
2023-03-18T12:33:07.450Z,95135.2
2023-03-18T12:34:09.748Z,95135.2
2023-03-18T12:35:12.014Z,95133.3
2023-03-18T12:36:14.271Z,95131.3
2023-03-18T12:37:16.535Z,95130.2
2023-03-18T12:38:18.805Z,95132.8
2023-03-18T12:39:21.059Z,95129.3
2023-03-18T12:40:23.652Z,95126.6
2023-03-18T12:41:26.238Z,95123.2
2023-03-18T12:42:28.753Z,95126.7
2023-03-18T12:43:30.768Z,95125.2
2023-03-18T12:44:32.425Z,95127.9
2023-03-18T12:45:35.598Z,95130.8
2023-03-18T12:46:37.996Z,95128.1
2023-03-18T12:47:40.520Z,95124.4